createdAt,value
2018-11-03T00:01:34.059Z,9.90
2018-11-03T00:04:01.617Z,9.90
2018-11-03T00:06:29.156Z,9.90
2018-11-03T00:08:56.675Z,9.80
2018-11-03T00:11:24.205Z,9.90
2018-11-03T00:13:51.728Z,9.90
2018-11-03T00:16:19.272Z,9.90
2018-11-03T00:18:46.788Z,9.80
2018-11-03T00:21:14.319Z,9.80
2018-11-03T00:23:41.857Z,9.80
2018-11-03T00:26:09.384Z,9.80
2018-11-03T00:28:36.908Z,9.90
2018-11-03T00:31:04.596Z,9.90
2018-11-03T00:33:32.108Z,9.90
2018-11-03T00:35:59.787Z,9.80
2018-11-03T00:38:27.316Z,9.90
2018-11-03T00:40:54.852Z,9.80
2018-11-03T00:43:22.460Z,9.80
2018-11-03T00:45:49.996Z,9.80
2018-11-03T00:48:17.536Z,9.80
2018-11-03T00:50:45.074Z,9.80
2018-11-03T00:53:12.643Z,9.80
2018-11-03T00:55:40.142Z,9.90
2018-11-03T00:58:07.648Z,9.80
2018-11-03T01:00:35.176Z,9.90
2018-11-03T01:03:02.687Z,9.80
2018-11-03T01:05:30.223Z,9.80
2018-11-03T01:07:57.744Z,9.80
2018-11-03T01:10:25.285Z,9.80
2018-11-03T01:12:52.807Z,9.80
2018-11-03T01:15:20.345Z,9.80
2018-11-03T01:17:47.850Z,9.70
2018-11-03T01:20:16.471Z,9.70
2018-11-03T01:22:44.132Z,9.70
2018-11-03T01:25:11.659Z,9.70
2018-11-03T01:27:39.256Z,9.70
2018-11-03T01:30:11.649Z,9.70
2018-11-03T01:32:39.263Z,9.70
2018-11-03T01:35:07.364Z,9.60
2018-11-03T01:37:35.174Z,9.60
2018-11-03T01:40:02.724Z,9.60
2018-11-03T01:42:30.256Z,9.50
2018-11-03T01:44:57.764Z,9.60
2018-11-03T01:47:25.311Z,9.50
2018-11-03T01:49:52.839Z,9.50
2018-11-03T01:52:20.388Z,9.50
2018-11-03T01:54:47.919Z,9.50
2018-11-03T01:57:15.444Z,9.50
2018-11-03T01:59:43.116Z,9.50
2018-11-03T02:02:10.681Z,9.40
2018-11-03T02:04:38.211Z,9.40
2018-11-03T02:07:05.779Z,9.40
2018-11-03T02:09:33.303Z,9.40
2018-11-03T02:12:00.830Z,9.40
2018-11-03T02:14:28.351Z,9.40
2018-11-03T02:16:55.920Z,9.40
2018-11-03T02:19:26.188Z,9.40
2018-11-03T02:21:53.712Z,9.40
2018-11-03T02:24:21.232Z,9.40
2018-11-03T02:26:48.759Z,9.40
2018-11-03T02:29:16.284Z,9.40
2018-11-03T02:31:43.824Z,9.40
2018-11-03T02:34:11.348Z,9.30
2018-11-03T02:36:38.888Z,9.30
2018-11-03T02:39:07.389Z,9.30
2018-11-03T02:41:34.921Z,9.30
2018-11-03T02:44:02.455Z,9.30
2018-11-03T02:46:29.983Z,9.30
2018-11-03T02:48:57.520Z,9.30
2018-11-03T02:51:25.057Z,9.30
2018-11-03T02:53:52.588Z,9.30
2018-11-03T02:56:20.109Z,9.30
2018-11-03T02:58:47.628Z,9.40
2018-11-03T03:01:15.172Z,9.40
2018-11-03T03:03:42.713Z,9.40
2018-11-03T03:06:10.248Z,9.40
2018-11-03T03:08:37.775Z,9.50
2018-11-03T03:11:05.379Z,9.50
2018-11-03T03:13:32.909Z,9.50
2018-11-03T03:16:00.453Z,9.50
2018-11-03T03:18:27.988Z,9.50
2018-11-03T03:20:55.532Z,9.50
2018-11-03T03:23:23.077Z,9.50
2018-11-03T03:25:50.636Z,9.50
2018-11-03T03:28:18.181Z,9.50
2018-11-03T03:30:45.712Z,9.40
2018-11-03T03:33:13.257Z,9.50
2018-11-03T03:35:40.786Z,9.50
2018-11-03T03:38:08.319Z,9.50
2018-11-03T03:40:35.843Z,9.40
2018-11-03T03:43:03.726Z,9.40
2018-11-03T03:45:31.272Z,9.40
2018-11-03T03:47:58.817Z,9.40
2018-11-03T03:50:26.335Z,9.40
2018-11-03T03:52:53.901Z,9.40
2018-11-03T03:55:21.491Z,9.40
2018-11-03T03:57:49.033Z,9.40
2018-11-03T04:00:16.576Z,9.30
2018-11-03T04:02:44.128Z,9.30
2018-11-03T04:05:11.668Z,9.30
2018-11-03T04:07:39.344Z,9.30
2018-11-03T04:10:07.832Z,9.30
2018-11-03T04:12:35.365Z,9.30
2018-11-03T04:15:03.111Z,9.30
2018-11-03T04:17:30.648Z,9.30
2018-11-03T04:19:58.176Z,9.30
2018-11-03T04:22:25.716Z,9.30
2018-11-03T04:24:53.268Z,9.30
2018-11-03T04:27:20.813Z,9.20
2018-11-03T04:29:48.331Z,9.30
2018-11-03T04:32:15.882Z,9.20
2018-11-03T04:34:43.453Z,9.20
2018-11-03T04:37:10.994Z,9.20
2018-11-03T04:39:38.569Z,9.20
2018-11-03T04:42:06.125Z,9.20
2018-11-03T04:44:33.785Z,9.20
2018-11-03T04:47:01.346Z,9.20
2018-11-03T04:49:28.900Z,9.20
2018-11-03T04:51:56.455Z,9.20
2018-11-03T04:54:24.011Z,9.20
2018-11-03T04:56:51.556Z,9.20
2018-11-03T04:59:19.081Z,9.20
2018-11-03T05:01:46.628Z,9.20
2018-11-03T05:04:14.276Z,9.20
2018-11-03T05:06:41.785Z,9.20
2018-11-03T05:09:10.188Z,9.20
2018-11-03T05:11:37.974Z,9.20
2018-11-03T05:14:06.224Z,9.20
2018-11-03T05:16:33.759Z,9.20
2018-11-03T05:19:01.324Z,9.20
2018-11-03T05:21:28.941Z,9.20
2018-11-03T05:23:56.456Z,9.20
2018-11-03T05:26:23.992Z,9.20
2018-11-03T05:28:51.537Z,9.20
2018-11-03T05:31:19.148Z,9.20
2018-11-03T05:33:46.619Z,9.20
2018-11-03T05:36:14.162Z,9.10
2018-11-03T05:38:41.697Z,9.10
2018-11-03T05:41:09.255Z,9.20
2018-11-03T05:43:36.793Z,9.10
2018-11-03T05:46:04.316Z,9.10
2018-11-03T05:48:31.872Z,9.10
2018-11-03T05:50:59.437Z,9.10
2018-11-03T05:53:27.008Z,9.10
2018-11-03T05:55:54.582Z,9.10
2018-11-03T05:58:22.127Z,9.10
2018-11-03T06:00:49.668Z,9.10
2018-11-03T06:03:17.190Z,9.00
2018-11-03T06:05:44.708Z,9.00
2018-11-03T06:08:12.240Z,8.90
2018-11-03T06:10:39.779Z,8.90
2018-11-03T06:13:07.326Z,8.80
2018-11-03T06:15:34.911Z,8.70
2018-11-03T06:18:02.383Z,8.70
2018-11-03T06:20:29.894Z,8.60
2018-11-03T06:22:57.476Z,8.60
2018-11-03T06:25:25.152Z,8.50
2018-11-03T06:27:52.696Z,8.50
2018-11-03T06:30:20.217Z,8.40
2018-11-03T06:32:47.749Z,8.40
2018-11-03T06:35:15.288Z,8.40
2018-11-03T06:37:42.808Z,8.40
2018-11-03T06:40:10.424Z,8.40
2018-11-03T06:42:38.284Z,8.50
2018-11-03T06:45:07.106Z,8.50
2018-11-03T06:47:34.657Z,8.50
2018-11-03T06:50:02.397Z,8.50
2018-11-03T06:52:29.921Z,8.50
2018-11-03T06:54:57.445Z,8.50
2018-11-03T06:57:24.976Z,8.60
2018-11-03T06:59:52.564Z,8.60
2018-11-03T07:02:20.078Z,8.70
2018-11-03T07:04:47.596Z,8.80
2018-11-03T07:07:15.110Z,8.90
2018-11-03T07:09:42.635Z,9.10
2018-11-03T07:12:10.274Z,9.20
2018-11-03T07:14:37.692Z,9.30
2018-11-03T07:17:05.408Z,9.50
2018-11-03T07:19:32.954Z,9.60
2018-11-03T07:22:00.476Z,9.70
2018-11-03T07:24:28.029Z,9.80
2018-11-03T07:26:55.548Z,9.90
2018-11-03T07:29:23.107Z,10.10
2018-11-03T07:31:50.623Z,10.20
2018-11-03T07:34:18.117Z,10.40
2018-11-03T07:36:45.649Z,10.50
2018-11-03T07:39:13.469Z,10.60
2018-11-03T07:41:41.022Z,10.80
2018-11-03T07:44:08.722Z,10.90
2018-11-03T07:46:36.240Z,11.10
2018-11-03T07:49:04.041Z,11.30
2018-11-03T07:51:31.400Z,11.50
2018-11-03T07:53:58.944Z,11.70
2018-11-03T07:56:26.528Z,11.80
2018-11-03T07:58:54.062Z,12.00
2018-11-03T08:01:21.607Z,12.10
2018-11-03T08:03:49.148Z,12.20
2018-11-03T08:06:16.671Z,12.40
2018-11-03T08:08:44.219Z,12.50
2018-11-03T08:11:11.740Z,12.60
2018-11-03T08:13:39.272Z,12.60
2018-11-03T08:16:06.792Z,12.70
2018-11-03T08:18:34.315Z,12.80
2018-11-03T08:21:01.832Z,12.80
2018-11-03T08:23:29.344Z,13.00
2018-11-03T08:25:56.856Z,13.10
2018-11-03T08:28:24.460Z,13.30
2018-11-03T08:30:51.996Z,13.40
2018-11-03T08:33:19.510Z,13.40
2018-11-03T08:35:47.028Z,13.40
2018-11-03T08:38:14.581Z,13.30
2018-11-03T08:40:42.100Z,13.20
2018-11-03T08:43:09.651Z,13.10
2018-11-03T08:45:37.145Z,13.00
2018-11-03T08:48:05.424Z,12.90
2018-11-03T08:50:32.912Z,12.90
2018-11-03T08:53:00.432Z,12.80
2018-11-03T08:55:27.955Z,12.70
2018-11-03T08:57:55.460Z,12.60
2018-11-03T09:00:23.086Z,12.60
2018-11-03T09:02:50.511Z,12.60
2018-11-03T09:05:18.012Z,12.60
2018-11-03T09:07:45.527Z,12.60
2018-11-03T09:10:14.028Z,12.50
2018-11-03T09:12:41.779Z,12.50
2018-11-03T09:15:10.991Z,12.40
2018-11-03T09:17:39.368Z,12.40
2018-11-03T09:20:08.158Z,12.40
2018-11-03T09:22:36.547Z,12.40
2018-11-03T09:25:05.888Z,12.40
2018-11-03T09:27:33.406Z,12.40
2018-11-03T09:30:00.928Z,12.50
2018-11-03T09:32:28.451Z,12.60
2018-11-03T09:34:55.968Z,12.70
2018-11-03T09:37:23.484Z,12.70
2018-11-03T09:39:50.995Z,12.80
2018-11-03T09:42:18.511Z,12.90
2018-11-03T09:44:46.071Z,12.90
2018-11-03T09:47:13.551Z,13.00
2018-11-03T09:49:41.083Z,12.90
2018-11-03T09:52:08.619Z,13.00
2018-11-03T09:54:36.270Z,13.00
2018-11-03T09:57:04.019Z,13.10
2018-11-03T09:59:31.548Z,13.20
2018-11-03T10:01:59.061Z,13.20
2018-11-03T10:04:26.663Z,13.30
2018-11-03T10:06:54.163Z,13.40
2018-11-03T10:09:21.696Z,13.50
2018-11-03T10:11:49.222Z,13.50
2018-11-03T10:14:16.748Z,13.60
2018-11-03T10:16:44.281Z,13.70
2018-11-03T10:19:11.821Z,13.80
2018-11-03T10:21:39.344Z,14.00
2018-11-03T10:24:06.957Z,14.00
2018-11-03T10:26:34.476Z,14.00
2018-11-03T10:29:02.041Z,14.10
2018-11-03T10:31:29.524Z,14.20
2018-11-03T10:33:57.032Z,14.40
2018-11-03T10:36:24.566Z,14.50
2018-11-03T10:38:52.109Z,14.50
2018-11-03T10:41:19.628Z,14.60
2018-11-03T10:43:47.167Z,14.70
2018-11-03T10:46:14.762Z,14.70
2018-11-03T10:48:42.235Z,14.80
2018-11-03T10:51:10.019Z,14.90
2018-11-03T10:53:37.605Z,15.10
2018-11-03T10:56:05.092Z,15.20
2018-11-03T10:58:32.616Z,15.20
2018-11-03T11:01:05.865Z,15.30
2018-11-03T11:03:39.280Z,15.50
2018-11-03T11:06:12.526Z,15.60
2018-11-03T11:08:45.796Z,15.70
2018-11-03T11:11:19.148Z,15.70
2018-11-03T11:13:46.929Z,15.90
2018-11-03T11:16:14.482Z,16.00
2018-11-03T11:18:41.988Z,16.10
2018-11-03T11:21:09.529Z,16.20
2018-11-03T11:23:37.151Z,16.20
2018-11-03T11:26:04.677Z,16.20
2018-11-03T11:28:32.257Z,16.20
2018-11-03T11:30:59.776Z,16.10
2018-11-03T11:33:27.296Z,16.00
2018-11-03T11:35:54.836Z,16.10
2018-11-03T11:38:22.366Z,16.20
2018-11-03T11:40:49.888Z,16.20
2018-11-03T11:43:17.511Z,16.30
2018-11-03T11:45:44.942Z,16.40
2018-11-03T11:48:12.451Z,16.50
2018-11-03T11:50:39.985Z,16.40
2018-11-03T11:53:07.523Z,16.20
2018-11-03T11:55:35.055Z,15.90
2018-11-03T11:58:02.565Z,15.80
2018-11-03T12:00:30.116Z,15.60
2018-11-03T12:02:57.719Z,15.50
2018-11-03T12:05:25.275Z,15.30
2018-11-03T12:07:52.774Z,15.20
2018-11-03T12:10:20.315Z,15.00
2018-11-03T12:12:47.827Z,14.90
2018-11-03T12:15:15.355Z,14.80
2018-11-03T12:17:42.893Z,14.80
2018-11-03T12:20:10.427Z,14.80
2018-11-03T12:22:38.712Z,14.80
2018-11-03T12:25:08.541Z,14.70
2018-11-03T12:27:36.392Z,14.60
2018-11-03T12:30:06.404Z,14.60
2018-11-03T12:32:34.144Z,14.60
2018-11-03T12:35:01.986Z,14.60
2018-11-03T12:37:29.734Z,14.50
2018-11-03T12:39:57.505Z,14.50
2018-11-03T12:42:25.493Z,14.60
2018-11-03T12:44:53.258Z,14.60
2018-11-03T12:47:21.072Z,14.60
2018-11-03T12:49:51.637Z,14.40
2018-11-03T12:52:19.400Z,14.40
2018-11-03T12:54:47.133Z,14.40
2018-11-03T12:57:14.949Z,14.40
2018-11-03T12:59:42.782Z,14.30
2018-11-03T13:02:10.548Z,14.30
2018-11-03T13:04:38.326Z,14.20
2018-11-03T13:07:06.120Z,14.10
2018-11-03T13:09:34.054Z,13.90
2018-11-03T13:12:01.790Z,13.90
2018-11-03T13:14:29.478Z,13.90
2018-11-03T13:16:57.302Z,13.80
2018-11-03T13:19:25.122Z,13.80
2018-11-03T13:21:52.934Z,13.80
2018-11-03T13:24:20.786Z,13.80
2018-11-03T13:26:48.569Z,13.80
2018-11-03T13:29:16.348Z,13.80
2018-11-03T13:31:44.133Z,13.80
2018-11-03T13:34:11.974Z,13.80
2018-11-03T13:36:39.722Z,13.70
2018-11-03T13:39:08.600Z,13.70
2018-11-03T13:41:36.462Z,13.60
2018-11-03T13:44:04.483Z,13.60
2018-11-03T13:46:32.313Z,13.50
2018-11-03T13:49:00.476Z,13.40
2018-11-03T13:51:28.414Z,13.20
2018-11-03T13:53:56.447Z,13.10
2018-11-03T13:56:24.265Z,13.10
2018-11-03T13:58:52.744Z,13.10
2018-11-03T14:01:20.485Z,13.00
2018-11-03T14:03:48.245Z,13.00
2018-11-03T14:06:16.186Z,13.00
2018-11-03T14:08:44.026Z,12.90
2018-11-03T14:11:11.908Z,12.90
2018-11-03T14:13:39.685Z,12.90
2018-11-03T14:16:07.495Z,12.90
2018-11-03T14:18:35.248Z,12.90
2018-11-03T14:21:03.025Z,12.80
2018-11-03T14:23:30.869Z,12.80
2018-11-03T14:25:58.616Z,12.80
2018-11-03T14:28:26.390Z,12.80
2018-11-03T14:30:54.185Z,12.70
2018-11-03T14:33:21.976Z,12.70
2018-11-03T14:35:49.691Z,12.60
2018-11-03T14:38:17.481Z,12.60
2018-11-03T14:40:45.281Z,12.60
2018-11-03T14:43:13.135Z,12.60
2018-11-03T14:45:40.954Z,12.60
2018-11-03T14:48:08.789Z,12.50
2018-11-03T14:50:36.603Z,12.50
2018-11-03T14:53:04.446Z,12.40
2018-11-03T14:55:32.246Z,12.30
2018-11-03T14:57:59.992Z,12.30
2018-11-03T15:00:27.808Z,12.30
2018-11-03T15:02:55.624Z,12.20
2018-11-03T15:05:23.426Z,12.20
2018-11-03T15:07:51.177Z,12.20
2018-11-03T15:10:18.974Z,12.20
2018-11-03T15:12:46.809Z,12.10
2018-11-03T15:15:15.432Z,12.10
2018-11-03T15:17:43.594Z,12.00
2018-11-03T15:20:11.869Z,12.00
2018-11-03T15:22:40.249Z,12.00
2018-11-03T15:25:08.513Z,12.00
2018-11-03T15:27:36.297Z,11.90
2018-11-03T15:30:04.723Z,11.90
2018-11-03T15:32:32.546Z,11.80
2018-11-03T15:35:00.629Z,11.80
2018-11-03T15:37:28.416Z,11.80
2018-11-03T15:39:56.150Z,11.70
2018-11-03T15:42:23.945Z,11.80
2018-11-03T15:44:51.737Z,11.70
2018-11-03T15:47:19.604Z,11.70
2018-11-03T15:49:47.444Z,11.70
2018-11-03T15:52:15.253Z,11.70
2018-11-03T15:54:42.996Z,11.70
2018-11-03T15:57:10.788Z,11.70
2018-11-03T15:59:38.577Z,11.70
2018-11-03T16:02:06.300Z,11.70
2018-11-03T16:04:34.125Z,11.70
2018-11-03T16:07:01.957Z,11.70
2018-11-03T16:09:29.751Z,11.70
2018-11-03T16:11:57.651Z,11.70
2018-11-03T16:14:25.349Z,11.70
2018-11-03T16:16:53.148Z,11.70
2018-11-03T16:19:20.901Z,11.70
2018-11-03T16:21:48.665Z,11.70
2018-11-03T16:24:16.401Z,11.60
2018-11-03T16:26:44.199Z,11.60
2018-11-03T16:29:11.982Z,11.60
2018-11-03T16:31:39.745Z,11.60
2018-11-03T16:34:07.569Z,11.60
2018-11-03T16:36:35.392Z,11.60
2018-11-03T16:39:04.430Z,11.60
2018-11-03T16:41:32.200Z,11.70
2018-11-03T16:43:59.972Z,11.60
2018-11-03T16:46:27.757Z,11.60
2018-11-03T16:48:55.545Z,11.60
2018-11-03T16:51:23.345Z,11.60
2018-11-03T16:53:51.112Z,11.60
2018-11-03T16:56:18.917Z,11.60
2018-11-03T16:58:46.791Z,11.60
2018-11-03T17:01:14.549Z,11.60
2018-11-03T17:03:42.340Z,11.60
2018-11-03T17:06:10.179Z,11.60
2018-11-03T17:08:37.913Z,11.60
2018-11-03T17:11:05.729Z,11.50
2018-11-03T17:13:33.510Z,11.50
2018-11-03T17:16:01.313Z,11.50
2018-11-03T17:18:29.166Z,11.50
2018-11-03T17:20:56.944Z,11.60
2018-11-03T17:23:24.856Z,11.60
2018-11-03T17:25:52.650Z,11.50
2018-11-03T17:28:20.495Z,11.50
2018-11-03T17:30:48.310Z,11.50
2018-11-03T17:33:16.129Z,11.50
2018-11-03T17:35:43.905Z,11.50
2018-11-03T17:38:11.708Z,11.50
2018-11-03T17:40:39.467Z,11.60
2018-11-03T17:43:07.306Z,11.50
2018-11-03T17:45:35.153Z,11.50
2018-11-03T17:48:02.909Z,11.50
2018-11-03T17:50:30.661Z,11.50
2018-11-03T17:52:58.533Z,11.50
2018-11-03T17:55:26.366Z,11.50
2018-11-03T17:57:54.123Z,11.50
2018-11-03T18:00:23.889Z,11.50
2018-11-03T18:02:51.845Z,11.50
2018-11-03T18:05:19.709Z,11.50
2018-11-03T18:07:47.526Z,11.50
2018-11-03T18:10:15.275Z,11.50
2018-11-03T18:12:43.370Z,11.50
2018-11-03T18:15:11.220Z,11.50
2018-11-03T18:17:39.035Z,11.50
2018-11-03T18:20:07.444Z,11.50
2018-11-03T18:22:34.976Z,11.50
2018-11-03T18:25:02.753Z,11.50
2018-11-03T18:27:30.267Z,11.50
2018-11-03T18:29:57.836Z,11.50
2018-11-03T18:32:25.363Z,11.50
2018-11-03T18:34:52.909Z,11.50
2018-11-03T18:37:20.439Z,11.50
2018-11-03T18:39:47.957Z,11.50
2018-11-03T18:42:15.481Z,11.50
2018-11-03T18:44:43.025Z,11.50
2018-11-03T18:47:10.549Z,11.50
2018-11-03T18:49:38.088Z,11.50
2018-11-03T18:52:05.614Z,11.40
2018-11-03T18:54:33.172Z,11.50
2018-11-03T18:57:00.699Z,11.50
2018-11-03T18:59:28.228Z,11.50
2018-11-03T19:01:56.044Z,11.40
2018-11-03T19:04:23.590Z,11.50
2018-11-03T19:06:51.125Z,11.40
2018-11-03T19:09:18.750Z,11.50
2018-11-03T19:11:46.208Z,11.50
2018-11-03T19:14:13.748Z,11.50
2018-11-03T19:16:41.277Z,11.50
2018-11-03T19:19:08.813Z,11.50
2018-11-03T19:21:36.336Z,11.50
2018-11-03T19:24:04.165Z,11.50
2018-11-03T19:26:31.659Z,11.50
2018-11-03T19:28:59.209Z,11.50
2018-11-03T19:31:26.741Z,11.50
2018-11-03T19:33:54.269Z,11.40
2018-11-03T19:36:21.795Z,11.50
2018-11-03T19:38:49.327Z,11.40
2018-11-03T19:41:16.864Z,11.50
2018-11-03T19:43:44.408Z,11.40
2018-11-03T19:46:11.929Z,11.50
2018-11-03T19:48:39.464Z,11.50
2018-11-03T19:51:06.990Z,11.50
2018-11-03T19:53:34.533Z,11.50
2018-11-03T19:56:02.078Z,11.50
2018-11-03T19:58:29.605Z,11.50
2018-11-03T20:00:57.145Z,11.50
2018-11-03T20:03:24.744Z,11.50
2018-11-03T20:05:52.284Z,11.50
2018-11-03T20:08:19.821Z,11.50
2018-11-03T20:10:47.348Z,11.50
2018-11-03T20:13:14.890Z,11.50
2018-11-03T20:15:42.425Z,11.50
2018-11-03T20:18:09.952Z,11.50
2018-11-03T20:20:37.488Z,11.50
2018-11-03T20:23:05.023Z,11.50
2018-11-03T20:25:32.558Z,11.50
2018-11-03T20:28:00.090Z,11.50
2018-11-03T20:30:27.637Z,11.50
2018-11-03T20:32:55.163Z,11.50
2018-11-03T20:35:22.708Z,11.40
2018-11-03T20:37:50.245Z,11.50
2018-11-03T20:40:17.784Z,11.50
2018-11-03T20:42:45.315Z,11.50
2018-11-03T20:45:12.864Z,11.50
2018-11-03T20:47:40.405Z,11.50
2018-11-03T20:50:10.118Z,11.50
2018-11-03T20:52:37.652Z,11.50
2018-11-03T20:55:06.365Z,11.50
2018-11-03T20:57:33.882Z,11.50
2018-11-03T21:00:01.450Z,11.50
2018-11-03T21:02:28.980Z,11.50
2018-11-03T21:04:56.516Z,11.50
2018-11-03T21:07:24.047Z,11.50
2018-11-03T21:09:51.592Z,11.50
2018-11-03T21:12:19.116Z,11.60
2018-11-03T21:14:46.636Z,11.60
2018-11-03T21:17:14.164Z,11.60
2018-11-03T21:19:41.720Z,11.60
2018-11-03T21:22:10.697Z,11.60
2018-11-03T21:24:38.223Z,11.60
2018-11-03T21:27:06.776Z,11.60
2018-11-03T21:29:34.309Z,11.60
2018-11-03T21:32:01.894Z,11.60
2018-11-03T21:34:29.396Z,11.60
2018-11-03T21:36:56.907Z,11.60
2018-11-03T21:39:24.451Z,11.60
2018-11-03T21:41:51.975Z,11.60
2018-11-03T21:44:19.507Z,11.60
2018-11-03T21:46:47.119Z,11.60
2018-11-03T21:49:14.580Z,11.60
2018-11-03T21:51:42.119Z,11.70
2018-11-03T21:54:09.666Z,11.70
2018-11-03T21:56:37.213Z,11.70
2018-11-03T21:59:05.087Z,11.70
2018-11-03T22:01:32.652Z,11.70
2018-11-03T22:04:00.185Z,11.70
2018-11-03T22:06:27.785Z,11.60
2018-11-03T22:08:55.251Z,11.70
2018-11-03T22:11:22.765Z,11.70
2018-11-03T22:13:50.307Z,11.70
2018-11-03T22:16:17.838Z,11.70
2018-11-03T22:18:45.460Z,11.70
2018-11-03T22:21:13.031Z,11.70
2018-11-03T22:23:40.564Z,11.70
2018-11-03T22:26:08.092Z,11.70
2018-11-03T22:28:35.591Z,11.70
2018-11-03T22:31:03.145Z,11.70
2018-11-03T22:33:30.673Z,11.70
2018-11-03T22:35:58.224Z,11.70
2018-11-03T22:38:25.748Z,11.70
2018-11-03T22:40:53.274Z,11.70
2018-11-03T22:43:20.923Z,11.70
2018-11-03T22:45:48.448Z,11.80
2018-11-03T22:48:15.959Z,11.70
2018-11-03T22:50:43.518Z,11.80
2018-11-03T22:53:11.044Z,11.70
2018-11-03T22:55:38.586Z,11.70
2018-11-03T22:58:06.488Z,11.70
2018-11-03T23:00:38.652Z,11.70
2018-11-03T23:03:06.208Z,11.70
2018-11-03T23:05:33.757Z,11.70
2018-11-03T23:08:01.329Z,11.70
2018-11-03T23:10:28.860Z,11.70
2018-11-03T23:12:56.407Z,11.60
2018-11-03T23:15:24.710Z,11.60
2018-11-03T23:17:52.244Z,11.60
2018-11-03T23:20:19.769Z,11.60
2018-11-03T23:22:47.288Z,11.50
2018-11-03T23:25:14.828Z,11.50
2018-11-03T23:27:42.365Z,11.50
2018-11-03T23:30:11.316Z,11.50
2018-11-03T23:32:38.809Z,11.40
2018-11-03T23:35:08.832Z,11.40
2018-11-03T23:37:36.360Z,11.40
2018-11-03T23:40:04.653Z,11.40
2018-11-03T23:42:32.184Z,11.40
2018-11-03T23:44:59.775Z,11.40
2018-11-03T23:47:27.264Z,11.40
2018-11-03T23:49:54.783Z,11.40
2018-11-03T23:52:28.020Z,11.40
2018-11-03T23:54:55.550Z,11.40
2018-11-03T23:57:23.085Z,11.40
2018-11-03T23:59:50.637Z,11.40
